createdAt,value
2022-12-22T00:01:05.105Z,100390.22
2022-12-22T00:03:50.451Z,100392.78
2022-12-22T00:06:36.023Z,100390.25
2022-12-22T00:09:21.325Z,100393.66
2022-12-22T00:12:08.530Z,100397.91
2022-12-22T00:14:53.956Z,100400.47
2022-12-22T00:17:43.437Z,100393.66
2022-12-22T00:20:34.316Z,100399.63
2022-12-22T00:23:19.549Z,100398.78
2022-12-22T00:26:05.786Z,100399.63
2022-12-22T00:28:53.561Z,100402.19
2022-12-22T00:31:40.942Z,100406.44
2022-12-22T00:34:33.039Z,100402.16
2022-12-22T00:37:18.897Z,100405.56
2022-12-22T00:40:04.177Z,100408.13
2022-12-22T00:42:50.016Z,100416.66
2022-12-22T00:45:37.131Z,100416.63
2022-12-22T00:48:24.063Z,100426.00
2022-12-22T00:51:09.353Z,100420.00
2022-12-22T00:53:55.358Z,100436.19
2022-12-22T00:56:41.267Z,100433.66
2022-12-22T00:59:29.378Z,100442.19
2022-12-22T01:02:16.298Z,100439.63
2022-12-22T01:05:02.076Z,100446.44
2022-12-22T01:07:48.864Z,100455.78
2022-12-22T01:10:35.142Z,100444.72
2022-12-22T01:13:21.002Z,100440.47
2022-12-22T01:16:06.318Z,100443.00
2022-12-22T01:18:52.920Z,100440.47
2022-12-22T01:21:38.885Z,100435.38
2022-12-22T01:24:29.877Z,100429.38
2022-12-22T01:27:15.054Z,100429.38
2022-12-22T01:30:00.866Z,100424.25
2022-12-22T01:32:46.885Z,100408.09
2022-12-22T01:35:38.377Z,100395.31
2022-12-22T01:38:24.120Z,100394.47
2022-12-22T01:41:09.812Z,100403.84
2022-12-22T01:43:54.999Z,100433.66
2022-12-22T01:46:43.332Z,100444.69
2022-12-22T01:49:32.221Z,100462.56
2022-12-22T01:52:20.656Z,100490.69
2022-12-22T01:55:06.797Z,100507.72
2022-12-22T01:57:53.444Z,100523.06
2022-12-22T02:00:39.554Z,100529.88
2022-12-22T02:03:34.409Z,100535.81
2022-12-22T02:06:35.695Z,100546.03
2022-12-22T02:09:37.630Z,100560.53
2022-12-22T02:12:29.953Z,100573.28
2022-12-22T02:15:24.318Z,100588.66
2022-12-22T02:18:20.271Z,100601.38
2022-12-22T02:21:11.348Z,100611.66
2022-12-22T02:24:25.420Z,100623.56
2022-12-22T02:27:15.776Z,100631.25
2022-12-22T02:30:07.884Z,100629.50
2022-12-22T02:32:55.258Z,100644.91
2022-12-22T02:35:40.490Z,100645.75
2022-12-22T02:38:32.022Z,100644.88
2022-12-22T02:41:32.600Z,100643.16
2022-12-22T02:44:37.375Z,100643.19
2022-12-22T02:47:29.595Z,100646.59
2022-12-22T02:50:21.643Z,100645.72
2022-12-22T02:53:08.436Z,100656.81
2022-12-22T02:55:53.784Z,100662.75
2022-12-22T02:58:39.108Z,100666.16
2022-12-22T03:01:26.512Z,100667.00
2022-12-22T03:04:18.123Z,100683.19
2022-12-22T03:07:03.860Z,100703.69
2022-12-22T03:09:49.511Z,100711.34
2022-12-22T03:12:34.925Z,100720.72
2022-12-22T03:15:22.318Z,100727.56
2022-12-22T03:18:09.174Z,100726.69
2022-12-22T03:20:55.170Z,100736.94
2022-12-22T03:23:40.799Z,100742.03
2022-12-22T03:26:08.920Z,100747.16
2022-12-22T03:28:36.848Z,100745.44
2022-12-22T03:31:07.141Z,100745.44
2022-12-22T03:33:36.442Z,100750.56
2022-12-22T03:36:05.339Z,100770.19
2022-12-22T03:38:33.532Z,100769.34
2022-12-22T03:41:01.907Z,100768.47
2022-12-22T03:43:48.099Z,100783.81
2022-12-22T03:46:33.600Z,100778.72
2022-12-22T03:49:13.537Z,100794.06
2022-12-22T03:51:48.474Z,100792.38
2022-12-22T03:54:18.842Z,100796.59
2022-12-22T03:56:47.004Z,100793.19
2022-12-22T03:59:15.565Z,100799.19
2022-12-22T04:01:44.922Z,100785.53
2022-12-22T04:04:15.736Z,100778.72
2022-12-22T04:06:44.119Z,100779.56
2022-12-22T04:09:12.143Z,100778.72
2022-12-22T04:11:57.443Z,100779.56
2022-12-22T04:14:31.506Z,100782.97
2022-12-22T04:17:02.249Z,100786.38
2022-12-22T04:19:31.793Z,100788.91
2022-12-22T04:21:59.758Z,100799.16
2022-12-22T04:24:27.808Z,100798.31
2022-12-22T04:26:55.770Z,100796.59
2022-12-22T04:29:23.617Z,100799.16
2022-12-22T04:31:51.547Z,100794.91
2022-12-22T04:34:19.788Z,100787.22
2022-12-22T04:36:49.237Z,100777.84
2022-12-22T04:39:17.063Z,100779.56
2022-12-22T04:41:45.285Z,100766.75
2022-12-22T04:44:13.220Z,100768.44
2022-12-22T04:46:41.023Z,100767.59
2022-12-22T04:49:09.130Z,100775.28
2022-12-22T04:51:36.931Z,100774.44
2022-12-22T04:54:06.277Z,100762.47
2022-12-22T04:56:34.362Z,100771.00
2022-12-22T04:59:02.186Z,100763.31
2022-12-22T05:01:30.125Z,100758.19
2022-12-22T05:04:00.152Z,100762.47
2022-12-22T05:06:28.022Z,100758.19
2022-12-22T05:08:56.070Z,100758.19
2022-12-22T05:11:25.460Z,100753.06
2022-12-22T05:13:53.290Z,100749.66
2022-12-22T05:16:21.262Z,100742.00
2022-12-22T05:18:50.798Z,100743.72
2022-12-22T05:21:21.202Z,100740.28
2022-12-22T05:23:49.902Z,100747.09
2022-12-22T05:26:19.362Z,100749.63
2022-12-22T05:28:49.051Z,100748.78
2022-12-22T05:31:19.415Z,100759.06
2022-12-22T05:33:47.521Z,100749.63
2022-12-22T05:36:15.668Z,100760.75
2022-12-22T05:38:44.631Z,100747.91
2022-12-22T05:41:12.856Z,100758.19
2022-12-22T05:43:40.703Z,100765.00
2022-12-22T05:46:12.388Z,100764.16
2022-12-22T05:48:40.576Z,100751.34
2022-12-22T05:51:09.926Z,100763.31
2022-12-22T05:53:38.708Z,100759.88
2022-12-22T05:56:07.830Z,100748.81
2022-12-22T05:58:36.082Z,100745.34
2022-12-22T06:01:04.247Z,100744.50
2022-12-22T06:03:33.649Z,100739.41
2022-12-22T06:06:27.064Z,100728.28
2022-12-22T06:08:55.063Z,100730.03
2022-12-22T06:11:22.918Z,100714.66
2022-12-22T06:13:50.706Z,100712.94
2022-12-22T06:19:37.429Z,100706.97
2022-12-22T06:22:05.298Z,100709.56
2022-12-22T06:24:33.115Z,100710.41
2022-12-22T06:27:01.189Z,100695.03
2022-12-22T06:29:29.030Z,100689.94
2022-12-22T06:31:56.880Z,100683.13
2022-12-22T06:34:24.931Z,100692.50
2022-12-22T06:36:54.099Z,100691.63
2022-12-22T06:39:22.688Z,100699.28
2022-12-22T06:42:08.078Z,100705.25
2022-12-22T06:44:35.942Z,100703.56
2022-12-22T06:47:03.883Z,100710.38
2022-12-22T06:49:31.723Z,100706.13
2022-12-22T06:52:01.015Z,100704.41
2022-12-22T06:54:28.814Z,100700.16
2022-12-22T06:56:56.640Z,100700.16
2022-12-22T06:59:24.438Z,100702.72
2022-12-22T07:01:52.393Z,100690.72
2022-12-22T07:04:21.480Z,100693.31
2022-12-22T07:06:49.508Z,100692.44
2022-12-22T07:09:18.666Z,100692.44
2022-12-22T07:11:46.499Z,100684.81
2022-12-22T07:14:14.404Z,100683.97
2022-12-22T07:16:42.529Z,100677.13
2022-12-22T07:19:10.485Z,100683.09
2022-12-22T07:21:38.331Z,100689.03
2022-12-22T07:24:07.037Z,100685.63
2022-12-22T07:26:36.276Z,100693.31
2022-12-22T07:29:04.260Z,100689.03
2022-12-22T07:31:32.148Z,100686.47
2022-12-22T07:34:00.068Z,100684.75
2022-12-22T07:36:27.941Z,100684.78
2022-12-22T07:38:55.867Z,100675.41
2022-12-22T07:41:41.188Z,100657.47
2022-12-22T07:44:10.406Z,100639.59
2022-12-22T07:46:40.336Z,100630.22
2022-12-22T07:49:26.483Z,100637.88
2022-12-22T07:51:57.234Z,100634.47
2022-12-22T07:54:25.973Z,100628.50
2022-12-22T07:56:53.882Z,100625.94
2022-12-22T07:59:23.509Z,100621.69
2022-12-22T08:01:51.550Z,100634.47
2022-12-22T08:04:19.526Z,100651.50
2022-12-22T08:06:47.470Z,100667.69
2022-12-22T08:09:17.120Z,100684.75
2022-12-22T08:11:45.070Z,100689.03
2022-12-22T08:14:12.913Z,100689.03
2022-12-22T08:16:42.117Z,100690.72
2022-12-22T08:19:10.065Z,100699.25
2022-12-22T08:21:37.889Z,100706.03
2022-12-22T08:24:06.699Z,100704.31
2022-12-22T08:26:37.590Z,100716.31
2022-12-22T08:29:10.040Z,100734.19
2022-12-22T08:31:38.888Z,100748.69
2022-12-22T08:34:10.387Z,100770.88
2022-12-22T08:36:43.114Z,100773.44
2022-12-22T08:39:12.016Z,100775.97
2022-12-22T08:41:52.177Z,100779.38
2022-12-22T08:44:23.422Z,100784.50
2022-12-22T08:46:52.081Z,100798.19
2022-12-22T08:49:21.841Z,100804.13
2022-12-22T08:51:50.395Z,100819.47
2022-12-22T08:54:18.342Z,100830.59
2022-12-22T08:56:46.766Z,100833.97
2022-12-22T08:59:15.352Z,100839.09
2022-12-22T09:01:48.121Z,100839.97
2022-12-22T09:04:18.047Z,100852.75
2022-12-22T09:06:47.671Z,100858.69
2022-12-22T09:09:16.600Z,100889.44
2022-12-22T09:11:44.951Z,100899.66
2022-12-22T09:14:13.325Z,100927.84
2022-12-22T09:16:41.935Z,100936.41
2022-12-22T09:19:09.862Z,100939.84
2022-12-22T09:21:38.163Z,100937.28
2022-12-22T09:24:08.309Z,100935.53
2022-12-22T09:26:37.324Z,100928.69
2022-12-22T09:29:05.531Z,100927.00
2022-12-22T09:31:33.997Z,100909.94
2022-12-22T09:34:02.204Z,100901.38
2022-12-22T09:36:33.604Z,100914.22
2022-12-22T09:39:08.333Z,100903.94
2022-12-22T09:41:38.699Z,100892.84
2022-12-22T09:44:13.381Z,100900.53
2022-12-22T09:46:42.293Z,100897.13
2022-12-22T09:49:15.452Z,100892.81
2022-12-22T09:51:47.494Z,100891.97
2022-12-22T09:54:17.167Z,100884.28
2022-12-22T09:56:45.017Z,100886.84
2022-12-22T09:59:14.824Z,100883.41
2022-12-22T10:02:03.876Z,100894.53
2022-12-22T10:04:59.731Z,100904.78
2022-12-22T10:07:32.000Z,100912.44
2022-12-22T10:10:06.917Z,100928.69
2022-12-22T10:12:34.815Z,100933.81
2022-12-22T10:15:02.720Z,100930.38
2022-12-22T10:17:32.693Z,100937.22
2022-12-22T10:20:20.598Z,100969.66
2022-12-22T10:22:51.379Z,100991.03
2022-12-22T10:25:52.503Z,101023.47
2022-12-22T10:28:25.012Z,101041.41
2022-12-22T10:31:11.883Z,101048.25
2022-12-22T10:33:46.175Z,101054.22
2022-12-22T10:36:15.572Z,101073.06
2022-12-22T10:38:59.779Z,101079.00
2022-12-22T10:41:31.982Z,101092.69
2022-12-22T10:44:02.530Z,101117.47
2022-12-22T10:46:34.954Z,101129.44
2022-12-22T10:49:13.433Z,101133.69
2022-12-22T10:51:42.799Z,101167.06
2022-12-22T10:54:10.605Z,101194.41
2022-12-22T10:56:39.827Z,101210.66
2022-12-22T10:59:20.053Z,101210.63
2022-12-22T11:01:48.055Z,101216.66
2022-12-22T11:04:18.438Z,101215.75
2022-12-22T11:06:46.883Z,101213.22
2022-12-22T11:09:33.213Z,101208.06
2022-12-22T11:12:14.494Z,101214.91
2022-12-22T11:14:53.599Z,101217.47
2022-12-22T11:17:30.920Z,101223.44
2022-12-22T11:20:18.075Z,101230.28
2022-12-22T11:22:53.647Z,101243.97
2022-12-22T11:25:33.984Z,101250.81
2022-12-22T11:28:17.241Z,101250.84
2022-12-22T11:30:57.746Z,101243.09
2022-12-22T11:33:39.990Z,101260.25
2022-12-22T11:36:16.583Z,101261.09
2022-12-22T11:38:51.317Z,101261.97
2022-12-22T11:41:35.905Z,101259.41
2022-12-22T11:44:22.096Z,101267.09
2022-12-22T11:46:56.921Z,101252.53
2022-12-22T11:49:53.523Z,101248.25
2022-12-22T11:52:43.627Z,101237.13
2022-12-22T11:55:18.295Z,101247.41
2022-12-22T11:57:59.958Z,101245.69
2022-12-22T12:01:11.781Z,101248.25
2022-12-22T12:03:53.775Z,101247.41
2022-12-22T12:06:40.084Z,101263.66
2022-12-22T12:09:23.079Z,101266.25
2022-12-22T12:11:55.085Z,101255.09
2022-12-22T12:14:28.255Z,101265.38
2022-12-22T12:17:00.794Z,101256.81
2022-12-22T12:19:47.991Z,101255.09
2022-12-22T12:22:26.102Z,101261.94
2022-12-22T12:25:01.821Z,101258.50
2022-12-22T12:27:45.211Z,101279.91
2022-12-22T12:33:12.653Z,101274.78
2022-12-22T12:35:53.459Z,101262.75
2022-12-22T12:39:06.135Z,101254.22
2022-12-22T12:41:24.816Z,101247.38
2022-12-22T12:43:54.977Z,101231.09
2022-12-22T12:47:05.624Z,101216.56
2022-12-22T12:49:54.717Z,101196.84
2022-12-22T12:52:55.821Z,101204.56
2022-12-22T12:55:31.677Z,101185.75
2022-12-22T12:58:02.127Z,101190.00
2022-12-22T13:00:50.980Z,101188.28
2022-12-22T13:06:53.313Z,101202.00
2022-12-22T13:12:39.970Z,101191.75
2022-12-22T13:15:32.102Z,101188.31
2022-12-22T13:18:00.578Z,101177.19
2022-12-22T13:20:31.971Z,101170.38
2022-12-22T13:23:11.408Z,101154.97
2022-12-22T13:25:43.185Z,101150.69
2022-12-22T13:28:16.675Z,101155.81
2022-12-22T13:30:48.299Z,101153.25
2022-12-22T13:33:19.459Z,101154.13
2022-12-22T13:35:53.427Z,101160.97
2022-12-22T13:38:31.092Z,101143.84
2022-12-22T13:40:59.753Z,101135.31
2022-12-22T13:43:28.943Z,101125.03
2022-12-22T13:45:58.631Z,101118.19
2022-12-22T13:48:43.301Z,101115.63
2022-12-22T13:51:18.458Z,101113.94
2022-12-22T13:54:07.678Z,101101.09
2022-12-22T13:56:40.912Z,101089.97
2022-12-22T13:59:23.082Z,101089.97
2022-12-22T14:01:51.975Z,101094.25
2022-12-22T14:04:20.107Z,101085.69
2022-12-22T14:06:48.065Z,101085.69
2022-12-22T14:09:19.446Z,101088.28
2022-12-22T14:11:52.901Z,101090.81
2022-12-22T14:14:26.154Z,101088.28
2022-12-22T14:16:56.518Z,101074.59
2022-12-22T14:19:25.460Z,101064.34
2022-12-22T14:22:03.308Z,101062.63
2022-12-22T14:24:38.774Z,101055.81
2022-12-22T14:27:13.342Z,101035.28
2022-12-22T14:29:41.630Z,101000.25
2022-12-22T14:32:10.840Z,100996.00
2022-12-22T14:34:39.222Z,100992.53
2022-12-22T14:37:10.737Z,100989.13
2022-12-22T14:39:40.086Z,100975.50
2022-12-22T14:42:14.860Z,100946.41
2022-12-22T14:44:45.903Z,100943.88
2022-12-22T14:47:18.820Z,100929.31
2022-12-22T14:49:49.206Z,100941.34
2022-12-22T14:52:22.825Z,100920.81
2022-12-22T14:55:27.106Z,100916.56
2022-12-22T14:57:57.772Z,100907.16
2022-12-22T15:00:33.455Z,100892.59
2022-12-22T15:03:03.940Z,100885.81
2022-12-22T15:05:36.206Z,100880.72
2022-12-22T15:08:08.520Z,100849.94
2022-12-22T15:10:42.219Z,100832.03
2022-12-22T15:13:16.759Z,100822.63
2022-12-22T15:15:45.041Z,100820.06
2022-12-22T15:18:15.475Z,100820.91
2022-12-22T15:20:43.484Z,100826.91
2022-12-22T15:23:14.336Z,100820.91
2022-12-22T15:25:44.095Z,100812.38
2022-12-22T15:28:12.098Z,100799.59
2022-12-22T15:30:40.122Z,100785.97
2022-12-22T15:33:14.250Z,100762.06
2022-12-22T15:35:43.142Z,100728.75
2022-12-22T15:38:14.589Z,100704.00
2022-12-22T15:40:45.726Z,100682.72
2022-12-22T15:43:29.233Z,100675.06
2022-12-22T15:46:03.671Z,100669.06
2022-12-22T15:48:34.450Z,100664.81
2022-12-22T15:51:04.711Z,100644.34
2022-12-22T15:53:33.481Z,100622.19
2022-12-22T15:56:03.074Z,100606.84
2022-12-22T15:58:34.174Z,100576.16
2022-12-22T16:01:02.131Z,100562.53
2022-12-22T16:03:30.176Z,100538.69
2022-12-22T16:05:58.635Z,100504.56
2022-12-22T16:08:31.997Z,100481.56
2022-12-22T16:11:00.581Z,100450.06
2022-12-22T16:13:30.409Z,100413.44
2022-12-22T16:15:58.993Z,100369.16
2022-12-22T16:18:31.768Z,100337.66
2022-12-22T16:21:04.546Z,100310.44
2022-12-22T16:23:32.515Z,100272.97
2022-12-22T16:26:02.455Z,100245.75
2022-12-22T16:28:33.165Z,100221.09
2022-12-22T16:31:02.237Z,100190.50
2022-12-22T16:33:35.139Z,100170.06
2022-12-22T16:36:03.225Z,100147.91
2022-12-22T16:38:31.142Z,100123.25
2022-12-22T16:40:58.979Z,100091.81
2022-12-22T16:43:50.339Z,100069.75
2022-12-22T16:46:21.698Z,100039.97
2022-12-22T16:48:54.761Z,100017.03
2022-12-22T16:51:25.215Z,99988.13
2022-12-22T16:53:53.669Z,99970.28
2022-12-22T16:56:26.663Z,99956.72
2022-12-22T16:58:56.310Z,99949.13
2022-12-22T17:01:36.174Z,99935.47
2022-12-22T17:04:07.570Z,99966.13
2022-12-22T17:06:36.067Z,99977.97
2022-12-22T17:09:06.115Z,99982.19
2022-12-22T17:11:34.683Z,99980.50
2022-12-22T17:14:08.687Z,99997.50
2022-12-22T17:16:36.647Z,99982.19
2022-12-22T17:19:04.531Z,99980.53
2022-12-22T17:21:33.305Z,99976.25
2022-12-22T17:24:04.059Z,99956.69
2022-12-22T17:26:35.025Z,99938.00
2022-12-22T17:29:03.166Z,99907.44
2022-12-22T17:31:32.433Z,99887.06
2022-12-22T17:34:00.287Z,99886.28
2022-12-22T17:36:34.237Z,99882.84
2022-12-22T17:39:03.070Z,99872.66
2022-12-22T17:41:31.107Z,99870.94
2022-12-22T17:43:58.904Z,99865.84
2022-12-22T17:46:26.838Z,99862.44
2022-12-22T17:48:56.262Z,99861.63
2022-12-22T17:51:28.236Z,99849.72
2022-12-22T17:53:58.680Z,99834.44
2022-12-22T17:56:28.199Z,99808.13
2022-12-22T17:58:56.352Z,99783.56
2022-12-22T18:01:27.233Z,99724.97
2022-12-22T18:03:57.233Z,99691.06
2022-12-22T18:06:28.502Z,99652.94
2022-12-22T18:08:57.746Z,99614.78
2022-12-22T18:11:26.182Z,99580.03
2022-12-22T18:13:57.091Z,99549.50
2022-12-22T18:16:26.876Z,99523.25
2022-12-22T18:18:56.331Z,99508.00
2022-12-22T18:21:25.724Z,99510.56
2022-12-22T18:23:53.827Z,99508.00
2022-12-22T18:26:24.174Z,99509.69
2022-12-22T18:28:52.770Z,99517.31
2022-12-22T18:31:21.906Z,99515.59
2022-12-22T18:33:49.937Z,99521.56
2022-12-22T18:36:21.460Z,99524.09
2022-12-22T18:38:50.373Z,99521.53
2022-12-22T18:41:23.302Z,99535.94
2022-12-22T18:43:51.943Z,99530.84
2022-12-22T18:46:20.227Z,99530.84
2022-12-22T18:48:49.528Z,99536.78
2022-12-22T18:51:24.007Z,99528.31
2022-12-22T18:53:54.494Z,99527.53
2022-12-22T18:59:23.917Z,99500.38
2022-12-22T19:01:52.500Z,99492.75
2022-12-22T19:04:20.413Z,99483.41
2022-12-22T19:06:49.609Z,99474.97
2022-12-22T19:09:17.517Z,99469.03
2022-12-22T19:11:45.642Z,99468.19
2022-12-22T19:14:18.661Z,99452.06
2022-12-22T19:16:47.204Z,99441.94
2022-12-22T19:19:19.511Z,99441.88
2022-12-22T19:21:49.483Z,99436.81
2022-12-22T19:24:17.413Z,99438.53
2022-12-22T19:26:45.310Z,99443.59
2022-12-22T19:29:15.427Z,99446.13
2022-12-22T19:31:45.058Z,99458.00
2022-12-22T19:34:22.124Z,99464.75
2022-12-22T19:36:51.448Z,99481.72
2022-12-22T19:39:19.282Z,99493.56
2022-12-22T19:41:48.948Z,99492.69
2022-12-22T19:44:19.964Z,99507.09
2022-12-22T19:46:48.966Z,99530.84
2022-12-22T19:49:18.655Z,99538.47
2022-12-22T19:51:46.838Z,99545.25
2022-12-22T19:54:16.425Z,99559.59
2022-12-22T19:56:47.299Z,99577.44
2022-12-22T19:59:28.146Z,99591.84
2022-12-22T20:01:58.346Z,99603.69
2022-12-22T20:04:29.810Z,99617.28
2022-12-22T20:06:57.659Z,99621.47
2022-12-22T20:09:26.880Z,99628.28
2022-12-22T20:11:54.703Z,99636.78
2022-12-22T20:14:22.610Z,99637.56
2022-12-22T20:16:50.600Z,99653.75
2022-12-22T20:19:18.497Z,99650.31
2022-12-22T20:21:47.112Z,99641.81
2022-12-22T20:24:21.837Z,99642.69
2022-12-22T20:26:54.493Z,99634.22
2022-12-22T20:29:24.305Z,99619.75
2022-12-22T20:31:52.581Z,99617.25
2022-12-22T20:34:20.831Z,99611.28
2022-12-22T20:36:48.734Z,99609.63
2022-12-22T20:39:18.853Z,99611.31
2022-12-22T20:41:52.597Z,99614.72
2022-12-22T20:45:02.469Z,99616.41
2022-12-22T20:47:32.421Z,99622.31
2022-12-22T20:50:01.196Z,99634.22
2022-12-22T20:52:29.067Z,99642.66
2022-12-22T20:54:56.890Z,99667.28
2022-12-22T20:57:25.784Z,99680.81
2022-12-22T20:59:56.619Z,99698.63
2022-12-22T21:02:28.009Z,99727.47
2022-12-22T21:04:56.845Z,99758.88
2022-12-22T21:07:25.108Z,99780.91
2022-12-22T21:09:52.915Z,99804.69
2022-12-22T21:12:20.767Z,99822.44
2022-12-22T21:14:49.414Z,99845.38
2022-12-22T21:17:19.818Z,99861.53
2022-12-22T21:19:47.879Z,99886.97
2022-12-22T21:22:15.908Z,99912.44
2022-12-22T21:24:43.880Z,99930.28
2022-12-22T21:27:17.692Z,99953.19
2022-12-22T21:29:45.789Z,99971.03
2022-12-22T21:32:14.759Z,99996.53
2022-12-22T21:34:43.955Z,100014.38
2022-12-22T21:37:17.192Z,100036.47
2022-12-22T21:39:45.577Z,100037.22
2022-12-22T21:42:15.642Z,100055.97
2022-12-22T21:44:44.614Z,100067.88
2022-12-22T21:47:15.166Z,100086.56
2022-12-22T21:49:44.365Z,100099.34
2022-12-22T21:52:12.177Z,100095.94
2022-12-22T21:54:40.078Z,100105.25
2022-12-22T21:57:07.896Z,100122.28
2022-12-22T21:59:35.849Z,100131.66
2022-12-22T22:02:03.764Z,100141.03
2022-12-22T22:04:31.854Z,100141.88
2022-12-22T22:07:01.033Z,100137.56
2022-12-22T22:09:28.894Z,100141.00
2022-12-22T22:12:14.320Z,100149.53
2022-12-22T22:14:42.140Z,100151.22
2022-12-22T22:17:11.387Z,100155.47
2022-12-22T22:19:39.194Z,100156.28
2022-12-22T22:22:08.429Z,100158.84
2022-12-22T22:24:36.322Z,100164.81
2022-12-22T22:27:04.336Z,100163.06
2022-12-22T22:29:32.178Z,100176.72
2022-12-22T22:31:59.991Z,100182.69
2022-12-22T22:34:27.938Z,100185.22
2022-12-22T22:36:55.932Z,100188.59
2022-12-22T22:39:25.360Z,100204.78
2022-12-22T22:41:53.175Z,100211.59
2022-12-22T22:44:21.274Z,100210.72
2022-12-22T22:46:49.141Z,100218.41
2022-12-22T22:49:28.023Z,100216.69
2022-12-22T22:51:56.720Z,100224.31
2022-12-22T22:54:25.947Z,100246.47
2022-12-22T22:56:53.788Z,100257.50
2022-12-22T22:59:21.611Z,100279.66
2022-12-22T23:01:49.487Z,100292.41
2022-12-22T23:06:37.261Z,100340.88
2022-12-22T23:09:05.371Z,100356.19
2022-12-22T23:11:33.172Z,100369.00
2022-12-22T23:14:01.261Z,100381.75
2022-12-22T23:16:35.571Z,100392.81
2022-12-22T23:19:06.905Z,100403.03
2022-12-22T23:21:34.910Z,100412.41
2022-12-22T23:24:04.461Z,100420.91
2022-12-22T23:26:32.509Z,100419.19
2022-12-22T23:29:03.711Z,100458.41
2022-12-22T23:31:32.456Z,100484.81
2022-12-22T23:34:00.724Z,100495.84
2022-12-22T23:36:28.772Z,100529.09
2022-12-22T23:38:56.760Z,100530.78
2022-12-22T23:41:25.942Z,100566.59
2022-12-22T23:43:54.742Z,100589.59
2022-12-22T23:46:23.241Z,100591.28
2022-12-22T23:51:44.775Z,100629.66
2022-12-22T23:54:37.475Z,100640.75
2022-12-22T23:57:06.867Z,100645.00
2022-12-22T23:59:34.672Z,100661.19
